Time;durP1;ratioP1;P1;durP2;ratioP2;P2;SDS_P1;SDS_P2;PMS_P1;PMS_P2;Temp;Humidity;BMP_temperature;BMP_pressure;BME280_temperature;BME280_humidity;BME280_pressure;Samples;Min_cycle;Max_cycle;Signal;HPM_P1;HPM_P2
2022/03/06 00:01:21;;;;;;;21.55;16.40;;;1.80;99.90;;;;;;4983525;28;20066;-69
2022/03/06 00:03:47;;;;;;;24.75;17.27;;;1.80;99.90;;;;;;4992911;28;20085;-69
2022/03/06 00:06:14;;;;;;;21.30;16.65;;;1.90;99.90;;;;;;4982018;28;20046;-69
2022/03/06 00:08:40;;;;;;;21.88;16.10;;;1.90;99.90;;;;;;4988174;28;20081;-68
2022/03/06 00:11:06;;;;;;;22.52;17.90;;;2.00;99.90;;;;;;4992273;28;20070;-68
2022/03/06 00:13:33;;;;;;;22.40;17.05;;;1.90;99.90;;;;;;4991242;28;20050;-68
2022/03/06 00:15:59;;;;;;;22.33;16.17;;;1.90;99.90;;;;;;4970002;28;20089;-68
2022/03/06 00:18:25;;;;;;;21.55;17.40;;;1.90;99.90;;;;;;4988034;28;20051;-68
2022/03/06 00:20:52;;;;;;;26.45;18.15;;;1.90;99.90;;;;;;4989562;28;20111;-68
2022/03/06 00:23:17;;;;;;;24.73;19.02;;;2.00;99.90;;;;;;4990015;28;20077;-68
2022/03/06 00:25:43;;;;;;;23.35;18.45;;;1.90;99.90;;;;;;4990561;28;20046;-68
2022/03/06 00:28:09;;;;;;;20.40;16.27;;;1.90;99.90;;;;;;4989290;28;20039;-68
2022/03/06 00:30:34;;;;;;;22.20;15.93;;;1.90;99.90;;;;;;4988675;28;20057;-68
2022/03/06 00:33:00;;;;;;;19.63;15.13;;;1.90;99.90;;;;;;4991285;28;20047;-68
2022/03/06 00:35:28;;;;;;;20.83;15.40;;;1.90;99.90;;;;;;4988083;28;20082;-68
2022/03/06 00:37:55;;;;;;;19.20;15.43;;;1.80;99.90;;;;;;4988172;28;20078;-68
2022/03/06 00:40:21;;;;;;;21.88;15.70;;;1.80;99.90;;;;;;4986812;28;20090;-69
2022/03/06 00:42:47;;;;;;;20.17;15.65;;;1.80;99.90;;;;;;4972422;28;20054;-68
2022/03/06 00:45:12;;;;;;;22.88;15.60;;;1.80;99.90;;;;;;4986956;28;20058;-68
2022/03/06 00:47:38;;;;;;;20.42;15.50;;;1.80;99.90;;;;;;4987318;28;20114;-68
2022/03/06 00:50:04;;;;;;;20.88;15.65;;;1.90;99.90;;;;;;4970333;28;20056;-68
2022/03/06 00:52:30;;;;;;;18.13;14.40;;;1.90;99.90;;;;;;4989178;28;20049;-68
2022/03/06 00:54:55;;;;;;;20.88;14.95;;;1.90;99.90;;;;;;4987922;28;20042;-68
2022/03/06 00:57:21;;;;;;;22.38;15.85;;;1.90;99.90;;;;;;4989151;28;20046;-68
2022/03/06 00:59:47;;;;;;;21.50;16.10;;;1.90;99.90;;;;;;4990229;28;20055;-68
2022/03/06 01:02:13;;;;;;;20.55;15.00;;;1.90;99.90;;;;;;4996526;28;20052;-68
2022/03/06 01:04:39;;;;;;;21.73;14.82;;;1.90;99.90;;;;;;4989906;28;20059;-68
2022/03/06 01:07:05;;;;;;;17.50;14.50;;;2.00;99.90;;;;;;4993990;28;20082;-68
2022/03/06 01:09:31;;;;;;;18.38;15.02;;;1.90;99.90;;;;;;4987288;28;20059;-68
2022/03/06 01:11:57;;;;;;;19.98;15.07;;;1.90;99.90;;;;;;4989690;28;20125;-68
2022/03/06 01:14:24;;;;;;;21.15;15.75;;;1.80;99.90;;;;;;4987067;28;20110;-68
2022/03/06 01:16:49;;;;;;;19.25;14.70;;;1.70;99.90;;;;;;4986591;28;20416;-68
2022/03/06 01:19:15;;;;;;;18.50;15.57;;;1.80;99.90;;;;;;4988079;28;20113;-68
2022/03/06 01:21:41;;;;;;;23.25;15.35;;;1.70;99.90;;;;;;4991077;28;20047;-68
2022/03/06 01:24:07;;;;;;;18.73;14.32;;;1.70;99.90;;;;;;4989088;28;20085;-68
2022/03/06 01:26:32;;;;;;;19.92;15.55;;;1.70;99.90;;;;;;4992112;28;20042;-68
2022/03/06 01:28:58;;;;;;;20.05;14.88;;;1.70;99.90;;;;;;4989511;28;20053;-68
2022/03/06 01:31:24;;;;;;;20.23;15.13;;;1.70;99.90;;;;;;4990291;28;20050;-68
2022/03/06 01:33:49;;;;;;;18.88;14.95;;;1.60;99.90;;;;;;4986304;28;20047;-68
2022/03/06 01:36:15;;;;;;;18.23;13.98;;;1.60;99.90;;;;;;4985559;28;20046;-68
2022/03/06 01:38:41;;;;;;;19.60;14.48;;;1.60;99.90;;;;;;4986889;28;20420;-68
2022/03/06 01:41:07;;;;;;;22.23;15.15;;;1.60;99.90;;;;;;4984941;28;20058;-68
2022/03/06 01:43:32;;;;;;;17.92;14.10;;;1.60;99.90;;;;;;4968657;28;20051;-68
2022/03/06 01:45:58;;;;;;;18.48;12.95;;;1.70;99.90;;;;;;4988414;28;20090;-68
2022/03/06 01:48:24;;;;;;;19.40;13.55;;;1.60;99.90;;;;;;4990472;28;20053;-68
2022/03/06 01:50:49;;;;;;;19.67;14.25;;;1.70;99.90;;;;;;4991033;28;20051;-68
2022/03/06 01:53:15;;;;;;;17.55;13.27;;;1.60;99.90;;;;;;4993657;28;20038;-68
2022/03/06 01:55:42;;;;;;;16.92;13.20;;;1.60;99.90;;;;;;4987027;28;20050;-68
2022/03/06 01:58:10;;;;;;;17.33;12.95;;;1.60;99.90;;;;;;4990179;28;20050;-68
2022/03/06 02:00:44;;;;;;;19.27;13.02;;;1.60;99.90;;;;;;4987968;28;20042;-68
2022/03/06 02:03:10;;;;;;;16.00;11.90;;;1.60;99.90;;;;;;4992479;28;20046;-68
2022/03/06 02:05:37;;;;;;;16.58;11.38;;;1.80;99.90;;;;;;4984939;28;20051;-68
2022/03/06 02:08:03;;;;;;;15.30;11.55;;;1.90;99.90;;;;;;4988454;28;20046;-68
2022/03/06 02:10:29;;;;;;;17.67;11.77;;;1.90;99.90;;;;;;4986491;28;20518;-68
2022/03/06 02:12:55;;;;;;;16.85;11.52;;;2.00;99.90;;;;;;4991450;28;20129;-68
2022/03/06 02:15:21;;;;;;;17.48;12.25;;;2.00;99.90;;;;;;4988840;28;20057;-68
2022/03/06 02:17:46;;;;;;;15.85;12.18;;;1.90;99.90;;;;;;4991302;28;20073;-68
2022/03/06 02:20:21;;;;;;;18.30;12.52;;;2.00;99.90;;;;;;4989130;28;20057;-68
2022/03/06 02:22:52;;;;;;;16.98;12.13;;;1.90;99.90;;;;;;5001000;28;20053;-68
2022/03/06 02:25:38;;;;;;;17.05;11.55;;;1.90;99.90;;;;;;4986353;28;20042;-68
2022/03/06 02:28:07;;;;;;;14.50;11.00;;;1.80;99.90;;;;;;4982718;28;20451;-68
2022/03/06 02:30:35;;;;;;;15.20;10.48;;;2.00;99.90;;;;;;4989712;28;20125;-68
2022/03/06 02:33:04;;;;;;;17.77;11.40;;;2.00;99.90;;;;;;4986286;28;20054;-68
2022/03/06 02:35:31;;;;;;;15.02;10.20;;;2.10;99.90;;;;;;4984383;28;20046;-68
2022/03/06 02:37:56;;;;;;;17.25;10.48;;;2.00;99.90;;;;;;4985386;28;20043;-68
2022/03/06 02:40:22;;;;;;;18.10;11.18;;;1.90;99.90;;;;;;4986600;28;20189;-68
2022/03/06 02:42:51;;;;;;;16.10;10.73;;;2.00;99.90;;;;;;4985482;28;20050;-68
2022/03/06 02:45:22;;;;;;;12.55;9.75;;;1.90;99.90;;;;;;4989807;28;20147;-68
2022/03/06 02:47:48;;;;;;;13.85;9.70;;;2.00;99.90;;;;;;4985243;28;20054;-68
2022/03/06 02:50:17;;;;;;;15.60;10.38;;;2.00;99.90;;;;;;4986674;28;20047;-68
2022/03/06 02:52:44;;;;;;;13.15;9.90;;;2.10;99.90;;;;;;4987196;28;20073;-68
2022/03/06 02:55:12;;;;;;;15.45;10.15;;;2.00;99.90;;;;;;4980689;28;20062;-68
2022/03/06 02:57:39;;;;;;;15.48;10.13;;;2.20;99.90;;;;;;4984848;28;20038;-68
2022/03/06 03:00:10;;;;;;;15.20;9.55;;;2.10;99.90;;;;;;4987511;28;20042;-68
2022/03/06 03:02:37;;;;;;;15.20;10.68;;;2.00;99.90;;;;;;4983993;28;20074;-68
2022/03/06 03:05:05;;;;;;;15.55;10.23;;;2.00;99.90;;;;;;4991198;28;20401;-68
2022/03/06 03:07:30;;;;;;;15.68;9.80;;;2.00;99.90;;;;;;4978440;28;20510;-68
2022/03/06 03:09:56;;;;;;;14.90;9.98;;;1.90;99.90;;;;;;4987135;28;20046;-68
2022/03/06 03:12:22;;;;;;;14.50;10.15;;;1.90;99.90;;;;;;4987770;28;20062;-68
2022/03/06 03:14:47;;;;;;;14.38;10.23;;;1.70;99.90;;;;;;4988011;28;20177;-68
2022/03/06 03:17:13;;;;;;;13.60;10.30;;;1.70;99.90;;;;;;4985078;28;20046;-68
2022/03/06 03:19:39;;;;;;;13.23;9.73;;;1.60;99.90;;;;;;4986118;28;20050;-68
2022/03/06 03:22:05;;;;;;;14.13;10.30;;;1.50;99.90;;;;;;4987684;28;20049;-68
2022/03/06 03:24:30;;;;;;;11.57;9.32;;;1.50;99.90;;;;;;4989063;28;20047;-68
2022/03/06 03:26:56;;;;;;;14.40;10.48;;;1.50;99.90;;;;;;4981121;28;20035;-68
2022/03/06 03:29:22;;;;;;;15.23;9.88;;;1.50;99.90;;;;;;4987154;28;20055;-68
2022/03/06 03:31:48;;;;;;;13.93;10.30;;;1.40;99.90;;;;;;4986234;28;20043;-68
2022/03/06 03:34:14;;;;;;;12.02;9.15;;;1.40;99.90;;;;;;4969876;28;20054;-68
2022/03/06 03:36:40;;;;;;;12.50;9.38;;;1.40;99.90;;;;;;4987667;28;20049;-68
2022/03/06 03:39:06;;;;;;;15.73;9.07;;;1.40;99.90;;;;;;4985864;28;20053;-68
2022/03/06 03:41:32;;;;;;;11.98;8.77;;;1.30;99.90;;;;;;4993998;28;20114;-68
2022/03/06 03:43:58;;;;;;;12.82;9.38;;;1.20;99.90;;;;;;4993983;28;20109;-69
2022/03/06 03:46:23;;;;;;;13.20;9.25;;;1.30;99.90;;;;;;4991727;28;20050;-68
2022/03/06 03:48:49;;;;;;;12.90;8.63;;;1.40;99.90;;;;;;4988951;28;20093;-68
2022/03/06 03:51:15;;;;;;;12.55;9.25;;;1.30;99.90;;;;;;4993354;28;20041;-68
2022/03/06 03:53:41;;;;;;;15.32;9.48;;;1.20;99.90;;;;;;4987432;28;20503;-68
2022/03/06 03:56:07;;;;;;;14.73;9.40;;;1.10;99.90;;;;;;4990885;28;20054;-68
2022/03/06 03:58:34;;;;;;;12.15;8.57;;;1.20;99.90;;;;;;4986746;28;20140;-68
2022/03/06 04:01:00;;;;;;;14.93;8.75;;;1.20;99.90;;;;;;4987309;28;20047;-68
2022/03/06 04:03:26;;;;;;;12.93;8.82;;;1.20;99.90;;;;;;4992696;28;20051;-68
2022/03/06 04:05:52;;;;;;;12.75;8.23;;;1.30;99.90;;;;;;4988947;28;20109;-68
2022/03/06 04:08:18;;;;;;;13.23;8.32;;;1.30;99.90;;;;;;4986490;28;20043;-68
2022/03/06 04:10:44;;;;;;;9.93;7.97;;;1.30;99.90;;;;;;4988158;28;20134;-68
2022/03/06 04:13:09;;;;;;;12.23;8.45;;;1.20;99.90;;;;;;4987505;28;20055;-68
2022/03/06 04:15:35;;;;;;;11.52;8.52;;;1.20;99.90;;;;;;4993511;28;20047;-68
2022/03/06 04:18:02;;;;;;;13.10;8.50;;;1.30;99.90;;;;;;4988973;28;20078;-68
2022/03/06 04:20:28;;;;;;;11.73;8.68;;;1.30;99.90;;;;;;4990211;28;20050;-68
2022/03/06 04:22:55;;;;;;;14.45;9.20;;;1.20;99.90;;;;;;4972574;28;20054;-68
2022/03/06 04:25:22;;;;;;;14.07;8.00;;;1.10;99.90;;;;;;4992399;28;20506;-68
2022/03/06 04:27:48;;;;;;;12.82;8.35;;;1.10;99.90;;;;;;4991332;28;20035;-68
2022/03/06 04:30:14;;;;;;;9.32;7.75;;;1.00;99.90;;;;;;4992214;28;20097;-69
2022/03/06 04:32:39;;;;;;;9.75;7.72;;;1.10;99.90;;;;;;4988142;28;20053;-69
2022/03/06 04:35:06;;;;;;;12.52;8.27;;;1.10;99.90;;;;;;4986359;28;20129;-69
2022/03/06 04:37:32;;;;;;;9.10;7.43;;;1.20;99.90;;;;;;4987234;28;20043;-69
2022/03/06 04:39:57;;;;;;;12.85;8.43;;;1.20;99.90;;;;;;4989187;28;20051;-69
2022/03/06 04:42:23;;;;;;;10.65;8.38;;;1.10;99.90;;;;;;4988250;28;20051;-68
2022/03/06 04:44:49;;;;;;;11.30;8.63;;;1.10;99.90;;;;;;4989160;28;20065;-68
2022/03/06 04:47:15;;;;;;;11.93;8.00;;;1.10;99.90;;;;;;4990154;28;20050;-69
2022/03/06 04:49:41;;;;;;;11.27;7.45;;;1.10;99.90;;;;;;4992870;28;20051;-68
2022/03/06 04:52:07;;;;;;;11.77;7.40;;;1.10;99.90;;;;;;4989213;28;20123;-68
2022/03/06 04:54:33;;;;;;;13.43;8.30;;;1.20;99.90;;;;;;4987756;28;20050;-68
2022/03/06 04:57:00;;;;;;;11.00;7.32;;;1.10;99.90;;;;;;4987022;28;20049;-68
2022/03/06 04:59:27;;;;;;;10.88;7.28;;;1.00;99.90;;;;;;4989605;28;20051;-68
2022/03/06 05:01:53;;;;;;;11.50;7.35;;;1.00;99.90;;;;;;4996980;28;20117;-68
2022/03/06 05:04:19;;;;;;;12.32;7.72;;;1.00;99.90;;;;;;4987690;28;20061;-68
2022/03/06 05:06:45;;;;;;;12.07;7.93;;;0.90;99.90;;;;;;4986294;28;20050;-68
2022/03/06 05:09:10;;;;;;;12.80;7.40;;;0.90;99.90;;;;;;4987423;28;20079;-68
2022/03/06 05:11:36;;;;;;;10.95;7.75;;;0.80;99.90;;;;;;4987600;28;20050;-68
2022/03/06 05:14:02;;;;;;;12.65;7.75;;;0.80;99.90;;;;;;4988674;28;20077;-68
2022/03/06 05:16:28;;;;;;;10.30;7.07;;;0.60;99.90;;;;;;4990520;28;20034;-68
2022/03/06 05:18:54;;;;;;;10.65;7.38;;;0.70;99.90;;;;;;4987896;28;20043;-68
2022/03/06 05:21:20;;;;;;;12.85;7.50;;;0.80;99.90;;;;;;4989975;28;20054;-68
2022/03/06 05:23:46;;;;;;;10.95;7.47;;;0.70;99.90;;;;;;4986170;28;20058;-68
2022/03/06 05:26:11;;;;;;;11.70;6.78;;;0.70;99.90;;;;;;4985763;28;20051;-68
2022/03/06 05:28:37;;;;;;;12.85;7.45;;;0.70;99.90;;;;;;4988314;28;20144;-68
2022/03/06 05:31:03;;;;;;;11.23;7.03;;;0.70;99.90;;;;;;4989353;28;20054;-68
2022/03/06 05:33:29;;;;;;;10.10;7.53;;;0.70;99.90;;;;;;4986967;28;20050;-68
2022/03/06 05:35:54;;;;;;;12.20;7.70;;;0.70;99.90;;;;;;4988183;28;20043;-68
2022/03/06 05:38:20;;;;;;;11.57;7.05;;;0.60;99.90;;;;;;4991258;28;20050;-68
2022/03/06 05:40:46;;;;;;;11.55;7.32;;;0.70;99.90;;;;;;4993038;28;20034;-68
2022/03/06 05:43:12;;;;;;;10.73;7.28;;;0.60;99.90;;;;;;4985247;28;20097;-68
2022/03/06 05:45:38;;;;;;;9.95;7.07;;;0.60;99.90;;;;;;4985523;28;20047;-68
2022/03/06 05:48:04;;;;;;;10.15;7.47;;;0.40;99.90;;;;;;4985726;28;20373;-69
2022/03/06 05:50:30;;;;;;;11.43;7.55;;;0.50;99.90;;;;;;4987456;28;20053;-69
2022/03/06 05:52:56;;;;;;;12.50;7.15;;;0.40;99.90;;;;;;4985754;28;20384;-69
2022/03/06 05:55:21;;;;;;;10.52;6.97;;;0.50;99.90;;;;;;4990389;28;20257;-69
2022/03/06 05:57:47;;;;;;;10.68;7.43;;;0.40;99.90;;;;;;4985462;28;20118;-69
2022/03/06 06:00:16;;;;;;;10.90;7.13;;;0.40;99.90;;;;;;4988080;28;20121;-69
2022/03/06 06:02:41;;;;;;;12.35;7.30;;;0.40;99.90;;;;;;4990860;28;20061;-69
2022/03/06 06:05:08;;;;;;;12.77;7.47;;;0.30;99.90;;;;;;4993805;28;20038;-70
2022/03/06 06:07:35;;;;;;;11.40;7.32;;;0.30;99.90;;;;;;4988113;28;20051;-70
2022/03/06 06:10:01;;;;;;;12.48;7.10;;;0.40;99.90;;;;;;4988580;28;20102;-69
2022/03/06 06:12:27;;;;;;;10.68;7.82;;;0.30;99.90;;;;;;4990150;28;20053;-68
2022/03/06 06:14:53;;;;;;;12.02;6.80;;;0.30;99.90;;;;;;4988904;28;20573;-69
2022/03/06 06:17:19;;;;;;;12.40;7.05;;;0.30;99.90;;;;;;4987520;28;20043;-69
2022/03/06 06:19:45;;;;;;;14.00;7.43;;;0.40;99.90;;;;;;4985207;28;20043;-69
2022/03/06 06:22:11;;;;;;;9.55;6.05;;;0.30;99.90;;;;;;4984535;28;20051;-69
2022/03/06 06:24:36;;;;;;;9.95;7.07;;;0.30;99.90;;;;;;4988058;28;20072;-69
2022/03/06 06:27:02;;;;;;;14.32;7.13;;;0.30;99.90;;;;;;4984071;28;20082;-68
2022/03/06 06:29:28;;;;;;;10.82;6.85;;;0.20;99.90;;;;;;4985648;28;20090;-69
2022/03/06 06:31:54;;;;;;;12.73;7.28;;;0.30;99.90;;;;;;4985014;28;20046;-69
2022/03/06 06:34:20;;;;;;;9.77;6.32;;;0.30;99.90;;;;;;4990807;28;20077;-68
2022/03/06 06:36:47;;;;;;;10.10;6.78;;;0.20;99.90;;;;;;4981353;28;20046;-69
2022/03/06 06:39:13;;;;;;;14.23;6.95;;;0.30;99.90;;;;;;4984539;28;20089;-69
2022/03/06 06:41:40;;;;;;;10.73;6.55;;;0.30;99.90;;;;;;4988320;28;20059;-69
2022/03/06 06:44:06;;;;;;;10.15;6.72;;;0.60;99.90;;;;;;4984521;28;20058;-69
2022/03/06 06:46:33;;;;;;;11.73;7.13;;;0.70;99.90;;;;;;4985051;28;20062;-69
2022/03/06 06:48:59;;;;;;;11.52;7.28;;;0.70;99.90;;;;;;4984745;28;20082;-69
2022/03/06 06:51:24;;;;;;;10.02;6.47;;;0.80;99.90;;;;;;4987563;28;20050;-69
2022/03/06 06:53:50;;;;;;;11.88;7.20;;;0.70;99.90;;;;;;4988636;28;20047;-69
2022/03/06 06:56:16;;;;;;;8.63;6.00;;;0.60;99.90;;;;;;4987879;28;20069;-69
2022/03/06 06:58:42;;;;;;;8.93;5.93;;;0.80;99.90;;;;;;4984648;28;20043;-69
2022/03/06 07:01:07;;;;;;;8.45;5.82;;;0.90;99.90;;;;;;4985893;28;20499;-69
2022/03/06 07:03:33;;;;;;;9.70;5.80;;;0.90;99.90;;;;;;4993772;28;20503;-69
2022/03/06 07:05:59;;;;;;;8.57;5.90;;;1.00;99.90;;;;;;4984771;28;20084;-69
2022/03/06 07:08:25;;;;;;;9.57;5.88;;;1.00;99.90;;;;;;4988940;28;20050;-69
2022/03/06 07:10:51;;;;;;;8.40;5.65;;;1.10;99.90;;;;;;4989277;28;20100;-69
2022/03/06 07:13:17;;;;;;;6.90;5.43;;;1.10;99.90;;;;;;4987664;28;20043;-69
2022/03/06 07:15:43;;;;;;;9.02;5.85;;;1.10;99.90;;;;;;4991149;28;20058;-68
2022/03/06 07:18:08;;;;;;;7.68;5.05;;;1.20;99.90;;;;;;4971779;28;20050;-69
2022/03/06 07:20:34;;;;;;;9.07;5.70;;;1.10;99.90;;;;;;4977988;28;20047;-69
2022/03/06 07:23:00;;;;;;;8.52;5.68;;;1.10;99.90;;;;;;4990842;28;20045;-69
2022/03/06 07:25:26;;;;;;;8.05;5.25;;;1.20;99.90;;;;;;4992377;28;20049;-69
2022/03/06 07:27:52;;;;;;;7.35;5.07;;;1.10;99.90;;;;;;4988810;28;20063;-69
2022/03/06 07:30:18;;;;;;;9.88;5.18;;;1.20;99.90;;;;;;4987818;28;20051;-68
2022/03/06 07:32:46;;;;;;;7.38;5.07;;;1.10;99.90;;;;;;4988804;28;20434;-68
2022/03/06 07:35:12;;;;;;;7.38;5.22;;;1.00;99.90;;;;;;4994459;28;20043;-69
2022/03/06 07:37:39;;;;;;;6.43;4.70;;;1.10;99.90;;;;;;4997901;28;20058;-68
2022/03/06 07:40:05;;;;;;;6.38;4.75;;;1.10;99.90;;;;;;4990038;28;20043;-68
2022/03/06 07:42:31;;;;;;;8.27;4.88;;;1.20;99.90;;;;;;4988492;28;20089;-69
2022/03/06 07:44:57;;;;;;;12.35;5.45;;;1.10;99.90;;;;;;4988143;28;20055;-69
2022/03/06 07:47:23;;;;;;;6.70;4.90;;;1.20;99.90;;;;;;4988604;28;20055;-69
2022/03/06 07:49:49;;;;;;;8.05;5.07;;;1.20;99.90;;;;;;4988901;28;20074;-69
2022/03/06 07:52:14;;;;;;;6.30;4.47;;;1.30;99.90;;;;;;4988560;28;20042;-69
2022/03/06 07:54:40;;;;;;;7.57;5.72;;;1.30;99.90;;;;;;4989532;28;20051;-69
2022/03/06 07:57:06;;;;;;;9.05;5.55;;;1.40;99.90;;;;;;4992188;28;20050;-69
2022/03/06 07:59:31;;;;;;;6.68;5.03;;;1.40;99.90;;;;;;4989496;28;20116;-69
2022/03/06 08:01:57;;;;;;;9.63;5.38;;;1.50;99.90;;;;;;4991701;28;20629;-69
2022/03/06 08:04:23;;;;;;;8.00;5.43;;;1.50;99.90;;;;;;4990976;28;20101;-69
2022/03/06 08:06:49;;;;;;;10.77;5.68;;;1.60;99.90;;;;;;4988164;28;20107;-69
2022/03/06 08:09:15;;;;;;;11.30;6.85;;;1.60;99.90;;;;;;4990355;28;20074;-69
2022/03/06 08:11:42;;;;;;;11.45;6.97;;;1.60;99.90;;;;;;4996120;28;20113;-70
2022/03/06 08:14:07;;;;;;;10.68;7.03;;;1.70;99.90;;;;;;4991493;28;20046;-70
2022/03/06 08:16:33;;;;;;;10.75;6.55;;;1.80;99.90;;;;;;4992896;28;20047;-70
2022/03/06 08:18:59;;;;;;;12.15;7.05;;;1.90;99.90;;;;;;4989084;28;20050;-70
2022/03/06 08:21:25;;;;;;;11.40;6.13;;;1.90;99.90;;;;;;4993964;28;20058;-69
2022/03/06 08:23:51;;;;;;;7.60;6.45;;;1.90;99.90;;;;;;4990362;28;20047;-70
2022/03/06 08:26:18;;;;;;;12.13;8.13;;;2.00;99.90;;;;;;4987131;28;20054;-70
2022/03/06 08:28:44;;;;;;;8.93;6.85;;;2.00;99.90;;;;;;4983517;28;20054;-70
2022/03/06 08:31:10;;;;;;;10.38;7.75;;;2.10;99.90;;;;;;5001981;28;20042;-70
2022/03/06 08:33:36;;;;;;;11.05;7.93;;;2.10;99.90;;;;;;4995100;28;20570;-70
2022/03/06 08:36:02;;;;;;;13.23;7.90;;;2.20;99.90;;;;;;4992529;28;20035;-70
2022/03/06 08:38:28;;;;;;;10.52;7.22;;;2.20;99.90;;;;;;4974281;28;20066;-71
2022/03/06 08:40:54;;;;;;;11.60;7.40;;;2.20;99.90;;;;;;4948758;28;20067;-72
2022/03/06 08:43:19;;;;;;;7.53;5.53;;;2.40;99.90;;;;;;4987334;28;20058;-72
2022/03/06 08:45:45;;;;;;;8.65;4.97;;;2.60;99.90;;;;;;4989184;28;20058;-71
2022/03/06 08:48:11;;;;;;;4.93;4.20;;;2.70;99.90;;;;;;4987589;28;20051;-68
2022/03/06 08:50:37;;;;;;;7.03;4.43;;;2.80;99.90;;;;;;4966606;28;20058;-67
2022/03/06 08:53:03;;;;;;;6.00;4.57;;;3.00;99.90;;;;;;4971767;28;20050;-66
2022/03/06 08:55:29;;;;;;;7.50;4.38;;;3.00;99.90;;;;;;4996706;28;20045;-66
2022/03/06 08:57:54;;;;;;;7.75;4.53;;;3.00;99.90;;;;;;4992713;28;20054;-66
2022/03/06 09:00:20;;;;;;;9.25;4.18;;;3.10;99.90;;;;;;4985727;28;20043;-66
2022/03/06 09:02:46;;;;;;;6.68;4.50;;;3.20;99.90;;;;;;4984783;28;20210;-66
2022/03/06 09:05:12;;;;;;;6.47;4.43;;;3.30;99.90;;;;;;4992161;28;20058;-66
2022/03/06 09:07:37;;;;;;;6.43;4.40;;;3.30;99.90;;;;;;4994649;28;20578;-66
2022/03/06 09:10:04;;;;;;;5.32;3.88;;;3.30;99.90;;;;;;4990802;28;20042;-66
2022/03/06 09:12:31;;;;;;;6.05;4.30;;;3.40;99.90;;;;;;4984107;28;20114;-71
2022/03/06 09:14:58;;;;;;;5.00;3.80;;;3.50;99.90;;;;;;4988690;28;20396;-69
2022/03/06 09:17:24;;;;;;;5.38;3.58;;;3.40;99.90;;;;;;4989658;28;20068;-71
2022/03/06 09:19:50;;;;;;;4.22;3.72;;;3.70;99.90;;;;;;4984306;28;20126;-72
2022/03/06 09:22:16;;;;;;;5.43;4.90;;;3.90;99.90;;;;;;4979663;28;20118;-70
2022/03/06 09:24:41;;;;;;;5.05;4.05;;;3.80;99.90;;;;;;4961052;28;20057;-71
2022/03/06 09:27:07;;;;;;;8.95;4.63;;;3.80;99.90;;;;;;4981771;28;20042;-70
2022/03/06 09:29:33;;;;;;;4.97;4.20;;;3.70;99.90;;;;;;4986469;28;20105;-70
2022/03/06 09:31:58;;;;;;;5.05;4.40;;;3.70;99.90;;;;;;4972173;28;20525;-70
2022/03/06 09:34:24;;;;;;;5.13;4.30;;;3.80;99.90;;;;;;4990841;28;20449;-71
2022/03/06 09:36:50;;;;;;;5.15;4.03;;;4.00;99.90;;;;;;4978784;28;20085;-70
2022/03/06 09:39:16;;;;;;;5.93;4.43;;;4.10;99.90;;;;;;4981243;28;20103;-70
2022/03/06 09:41:42;;;;;;;6.45;3.92;;;4.20;99.90;;;;;;4938068;28;20186;-68
2022/03/06 09:44:10;;;;;;;5.95;4.25;;;4.30;99.90;;;;;;4989359;28;20046;-72
2022/03/06 09:46:37;;;;;;;5.78;4.63;;;4.30;99.90;;;;;;4975304;28;20065;-72
2022/03/06 09:49:04;;;;;;;6.43;4.07;;;4.40;99.90;;;;;;4978347;28;20117;-72
2022/03/06 09:51:34;;;;;;;4.78;4.07;;;4.40;99.90;;;;;;4969333;28;20223;-72
2022/03/06 09:53:59;;;;;;;5.53;3.63;;;4.60;99.90;;;;;;4979643;28;20093;-71
2022/03/06 09:56:25;;;;;;;5.85;3.60;;;4.90;99.90;;;;;;4970349;28;20046;-71
2022/03/06 09:58:51;;;;;;;4.20;3.47;;;5.00;99.90;;;;;;4965375;28;20043;-72
2022/03/06 10:01:17;;;;;;;5.13;3.50;;;4.90;99.90;;;;;;4976045;28;20043;-71
2022/03/06 10:03:42;;;;;;;5.63;3.72;;;5.10;99.90;;;;;;4978102;28;20054;-71
2022/03/06 10:06:10;;;;;;;7.07;5.43;;;5.00;99.90;;;;;;4983896;28;20054;-70
2022/03/06 10:08:36;;;;;;;8.27;5.20;;;4.90;99.90;;;;;;4957153;28;20127;-68
2022/03/06 10:11:06;;;;;;;4.68;3.53;;;4.90;99.90;;;;;;4977917;28;20039;-68
2022/03/06 10:13:33;;;;;;;6.28;3.30;;;5.10;99.90;;;;;;4970017;28;20047;-69
2022/03/06 10:16:15;;;;;;;6.40;4.13;;;5.10;99.90;;;;;;4986712;28;20050;-68
2022/03/06 10:18:42;;;;;;;6.47;4.07;;;5.10;99.90;;;;;;4954971;28;20055;-68
2022/03/06 10:21:14;;;;;;;7.88;4.53;;;5.10;99.90;;;;;;4986837;28;20109;-67
2022/03/06 10:23:40;;;;;;;4.75;3.33;;;5.10;99.90;;;;;;4958046;28;20074;-67
2022/03/06 10:26:11;;;;;;;4.70;3.65;;;5.10;99.90;;;;;;4986154;28;20105;-67
2022/03/06 10:28:51;;;;;;;4.78;3.40;;;5.30;99.90;;;;;;4956691;28;20573;-67
2022/03/06 10:31:18;;;;;;;7.20;3.72;;;5.60;99.90;;;;;;4976894;28;20046;-67
2022/03/06 10:34:03;;;;;;;6.03;3.20;;;5.50;99.90;;;;;;4986621;28;20065;-67
2022/03/06 10:36:42;;;;;;;3.50;3.00;;;5.60;99.90;;;;;;4981376;28;20053;-67
2022/03/06 10:39:19;;;;;;;8.13;3.55;;;5.90;99.90;;;;;;4991067;28;20058;-67
2022/03/06 10:41:55;;;;;;;7.07;3.30;;;6.00;99.90;;;;;;4964276;28;20042;-67
2022/03/06 10:44:41;;;;;;;6.18;3.38;;;6.00;99.90;;;;;;4980783;28;20066;-67
2022/03/06 10:47:06;;;;;;;4.63;3.03;;;6.30;99.90;;;;;;4978882;28;20084;-66
2022/03/06 10:49:33;;;;;;;7.13;3.22;;;6.10;99.90;;;;;;4979350;28;20050;-66
2022/03/06 10:52:16;;;;;;;4.93;3.50;;;6.20;99.90;;;;;;4975562;28;20058;-66
2022/03/06 10:54:53;;;;;;;5.38;3.72;;;6.10;99.90;;;;;;4987877;28;20116;-67
2022/03/06 10:57:21;;;;;;;5.88;2.97;;;5.90;99.90;;;;;;4955234;28;20098;-68
2022/03/06 10:59:49;;;;;;;5.07;3.35;;;6.00;99.90;;;;;;4979971;28;20039;-66
2022/03/06 11:02:15;;;;;;;6.70;3.53;;;5.80;99.90;;;;;;4986565;28;20131;-67
2022/03/06 11:04:43;;;;;;;5.35;3.30;;;5.80;99.90;;;;;;4989277;28;20552;-68
2022/03/06 11:07:10;;;;;;;6.13;3.45;;;5.80;99.90;;;;;;4975060;28;20050;-67
2022/03/06 11:09:37;;;;;;;4.15;3.40;;;6.00;99.90;;;;;;4980729;28;20056;-69
2022/03/06 11:12:03;;;;;;;5.57;3.65;;;6.20;99.90;;;;;;4973496;28;20085;-68
2022/03/06 11:14:31;;;;;;;6.68;3.90;;;6.20;99.90;;;;;;4988894;28;20034;-66
2022/03/06 11:16:57;;;;;;;5.78;3.60;;;6.20;99.90;;;;;;4974456;28;20295;-66
2022/03/06 11:19:24;;;;;;;5.50;3.80;;;6.10;99.90;;;;;;4997559;28;20043;-66
2022/03/06 11:22:02;;;;;;;5.20;3.25;;;6.10;99.90;;;;;;4987231;28;20402;-66
2022/03/06 11:24:30;;;;;;;6.82;4.15;;;6.30;99.90;;;;;;4967998;28;20125;-68
2022/03/06 11:27:21;;;;;;;6.85;3.70;;;6.40;99.90;;;;;;4983891;28;20058;-69
2022/03/06 11:30:02;;;;;;;5.88;3.63;;;6.40;99.90;;;;;;4991362;28;20466;-70
2022/03/06 11:32:31;;;;;;;7.65;3.72;;;6.40;99.90;;;;;;4975369;28;20562;-68
2022/03/06 11:35:18;;;;;;;4.78;3.78;;;6.60;99.90;;;;;;4993131;28;20605;-69
2022/03/06 11:37:56;;;;;;;7.65;3.63;;;6.70;99.90;;;;;;4969306;28;20050;-69
2022/03/06 11:40:45;;;;;;;7.82;3.55;;;6.90;99.90;;;;;;4971677;28;20070;-69
2022/03/06 11:43:37;;;;;;;7.63;4.10;;;6.80;99.90;;;;;;4984856;28;20513;-69
2022/03/06 11:46:03;;;;;;;7.53;4.30;;;6.80;99.90;;;;;;4972091;28;20145;-69
2022/03/06 11:48:35;;;;;;;10.98;4.88;;;6.80;99.90;;;;;;4984208;28;20043;-69
2022/03/06 11:51:21;;;;;;;4.05;3.35;;;6.80;99.90;;;;;;4973919;28;20076;-69
2022/03/06 11:53:51;;;;;;;4.78;3.20;;;7.00;99.90;;;;;;4969368;28;20522;-69
2022/03/06 11:56:33;;;;;;;4.97;3.40;;;6.90;99.90;;;;;;4977804;28;20439;-69
2022/03/06 11:59:00;;;;;;;5.55;3.42;;;7.00;99.90;;;;;;4971469;28;20550;-69
2022/03/06 12:01:27;;;;;;;5.47;3.38;;;7.20;99.90;;;;;;4979288;28;20057;-70
2022/03/06 12:04:07;;;;;;;6.70;3.95;;;7.20;99.90;;;;;;4973783;28;20057;-69
2022/03/06 12:06:57;;;;;;;5.72;3.80;;;7.30;99.90;;;;;;4986856;28;20051;-69
2022/03/06 12:09:34;;;;;;;7.60;3.30;;;7.40;99.90;;;;;;4971456;28;20454;-69
2022/03/06 12:12:03;;;;;;;5.85;4.07;;;7.60;99.90;;;;;;4977033;28;20059;-69
2022/03/06 12:14:28;;;;;;;8.73;5.50;;;7.60;99.90;;;;;;4984086;28;20475;-69
2022/03/06 12:17:04;;;;;;;9.63;6.55;;;7.70;99.90;;;;;;4971693;28;20054;-69
2022/03/06 12:19:50;;;;;;;6.53;4.60;;;7.70;99.90;;;;;;4983684;28;20078;-69
2022/03/06 12:22:28;;;;;;;8.65;4.95;;;7.80;99.90;;;;;;4972929;28;20061;-69
2022/03/06 12:25:06;;;;;;;6.03;4.53;;;8.20;99.90;;;;;;4967086;28;20058;-70
2022/03/06 12:27:33;;;;;;;5.82;4.03;;;8.60;99.90;;;;;;4977876;28;20498;-70
2022/03/06 12:30:03;;;;;;;5.50;3.92;;;8.80;99.90;;;;;;4979505;28;20050;-71
2022/03/06 12:32:34;;;;;;;7.45;4.13;;;9.00;99.90;;;;;;4972827;28;20092;-71
2022/03/06 12:35:04;;;;;;;5.45;3.40;;;9.20;99.90;;;;;;4984854;28;20042;-70
2022/03/06 12:37:35;;;;;;;6.00;3.80;;;9.60;99.90;;;;;;4974241;28;20043;-70
2022/03/06 12:40:03;;;;;;;6.78;4.10;;;9.50;99.90;;;;;;4980450;28;20070;-69
2022/03/06 12:42:30;;;;;;;7.38;3.50;;;9.50;99.90;;;;;;4973813;28;20061;-70
2022/03/06 12:44:58;;;;;;;5.07;3.75;;;9.70;99.90;;;;;;4980647;28;20086;-71
2022/03/06 12:47:26;;;;;;;6.20;3.75;;;9.80;99.90;;;;;;4976519;28;20053;-71
2022/03/06 12:49:53;;;;;;;4.97;3.72;;;10.30;99.90;;;;;;4971608;28;20585;-71